Time;durP1;ratioP1;P1;durP2;ratioP2;P2;SDS_P1;SDS_P2;PMS_P1;PMS_P2;Temp;Humidity;BMP_temperature;BMP_pressure;BME280_temperature;BME280_humidity;BME280_pressure;Samples;Min_cycle;Max_cycle;Signal;HPM_P1;HPM_P2
2022/12/05 00:01:29;;;;;;;82.97;30.90;;;2.20;99.90;;;;;;4972518;28;20537;-58
2022/12/05 00:04:00;;;;;;;83.13;31.67;;;2.20;99.90;;;;;;4971052;28;20202;-56
2022/12/05 00:06:31;;;;;;;85.30;32.23;;;2.20;99.90;;;;;;4985916;28;20210;-58
2022/12/05 00:09:00;;;;;;;90.93;34.27;;;2.20;99.90;;;;;;4983647;28;20700;-58
2022/12/05 00:11:31;;;;;;;86.70;32.33;;;2.20;99.90;;;;;;4983219;28;20198;-56
2022/12/05 00:14:01;;;;;;;81.47;32.17;;;2.20;99.90;;;;;;4977699;28;20198;-55
2022/12/05 00:16:31;;;;;;;88.43;32.30;;;2.20;99.90;;;;;;4986560;28;20241;-56
2022/12/05 00:19:01;;;;;;;85.20;32.43;;;2.20;99.90;;;;;;4976393;28;20256;-56
2022/12/05 00:21:31;;;;;;;86.03;30.50;;;2.20;99.90;;;;;;5014799;28;20229;-56
2022/12/05 00:24:01;;;;;;;84.27;31.30;;;2.20;99.90;;;;;;4985508;28;20204;-56
2022/12/05 00:26:31;;;;;;;82.43;31.73;;;2.20;99.90;;;;;;4983603;28;20700;-56
2022/12/05 00:29:00;;;;;;;85.83;30.90;;;2.30;99.90;;;;;;4974815;28;20559;-56
2022/12/05 00:31:29;;;;;;;75.93;29.63;;;2.20;99.90;;;;;;4976309;28;20199;-56
2022/12/05 00:34:00;;;;;;;86.30;30.00;;;2.20;99.90;;;;;;4975410;28;20260;-56
2022/12/05 00:36:30;;;;;;;80.10;29.43;;;2.20;99.90;;;;;;4981153;28;20204;-56
2022/12/05 00:39:00;;;;;;;86.20;30.73;;;2.10;99.90;;;;;;5031825;28;20740;-56
2022/12/05 00:41:30;;;;;;;87.83;30.10;;;2.20;99.90;;;;;;4990564;28;20210;-58
2022/12/05 00:44:01;;;;;;;86.30;29.90;;;2.20;99.90;;;;;;4976180;28;20203;-58
2022/12/05 00:46:31;;;;;;;85.17;30.40;;;2.10;99.90;;;;;;4986799;28;20206;-58
2022/12/05 00:49:01;;;;;;;86.80;30.30;;;2.10;99.90;;;;;;4983539;28;20259;-56
2022/12/05 00:51:31;;;;;;;87.23;31.13;;;2.10;99.90;;;;;;4976395;28;20214;-58
2022/12/05 00:54:01;;;;;;;94.87;30.67;;;2.10;99.90;;;;;;4982971;28;20204;-59
2022/12/05 00:56:31;;;;;;;84.33;29.43;;;2.10;99.90;;;;;;4980498;28;20583;-58
2022/12/05 00:59:01;;;;;;;85.93;30.70;;;2.20;99.90;;;;;;4981693;28;20207;-58
2022/12/05 01:01:32;;;;;;;86.10;30.97;;;2.20;99.90;;;;;;4970493;28;20541;-58
2022/12/05 01:04:02;;;;;;;95.23;30.03;;;2.10;99.90;;;;;;4979741;28;20191;-58
2022/12/05 01:06:31;;;;;;;88.23;29.87;;;2.20;99.90;;;;;;4987880;28;20244;-59
2022/12/05 01:08:59;;;;;;;89.97;31.47;;;2.20;99.90;;;;;;4982965;28;20195;-59
2022/12/05 01:11:29;;;;;;;89.40;30.77;;;2.20;99.90;;;;;;4999145;28;20199;-59
2022/12/05 01:14:00;;;;;;;90.27;29.73;;;2.20;99.90;;;;;;4983561;28;20542;-58
2022/12/05 01:16:31;;;;;;;91.73;30.57;;;2.20;99.90;;;;;;4988712;28;20235;-59
2022/12/05 01:19:02;;;;;;;86.00;30.57;;;2.20;99.90;;;;;;4982896;28;20196;-59
2022/12/05 01:21:31;;;;;;;90.37;29.80;;;2.30;99.90;;;;;;4994849;28;20545;-59
2022/12/05 01:23:59;;;;;;;93.30;31.17;;;2.20;99.90;;;;;;4998916;28;20192;-58
2022/12/05 01:26:28;;;;;;;96.83;30.67;;;2.20;99.90;;;;;;4984003;28;20214;-58
2022/12/05 01:28:58;;;;;;;101.13;31.93;;;2.20;99.90;;;;;;4987754;28;20191;-59
2022/12/05 01:31:29;;;;;;;94.17;31.03;;;2.20;99.90;;;;;;4976768;28;20283;-57
2022/12/05 01:34:00;;;;;;;92.87;31.53;;;2.20;99.90;;;;;;4987790;28;20203;-58
2022/12/05 01:36:29;;;;;;;98.70;32.77;;;2.20;99.90;;;;;;4987619;28;20190;-58
2022/12/05 01:38:58;;;;;;;95.20;32.30;;;2.20;99.90;;;;;;4984017;28;20202;-58
2022/12/05 01:41:29;;;;;;;92.10;31.33;;;2.20;99.90;;;;;;4986724;28;20199;-58
2022/12/05 01:44:02;;;;;;;90.20;30.93;;;2.20;99.90;;;;;;4983907;28;20822;-58
2022/12/05 01:46:33;;;;;;;91.93;32.23;;;2.20;99.90;;;;;;4982660;28;20275;-58
2022/12/05 01:49:07;;;;;;;93.83;31.13;;;2.20;99.90;;;;;;5007693;28;20226;-58
2022/12/05 01:51:39;;;;;;;88.00;32.63;;;2.20;99.90;;;;;;4983169;28;20187;-59
2022/12/05 01:54:09;;;;;;;89.03;31.33;;;2.20;99.90;;;;;;4977879;28;20200;-58
2022/12/05 01:56:39;;;;;;;95.33;32.03;;;2.20;99.90;;;;;;4972559;28;20198;-59
2022/12/05 01:59:11;;;;;;;92.87;32.20;;;2.10;99.90;;;;;;5019754;28;20217;-59
2022/12/05 02:01:40;;;;;;;93.93;32.07;;;2.10;99.90;;;;;;4978722;28;20199;-58
2022/12/05 02:04:09;;;;;;;94.73;32.37;;;2.00;99.90;;;;;;4983737;28;20200;-58
2022/12/05 02:06:38;;;;;;;88.13;31.03;;;2.00;99.90;;;;;;4983693;28;20195;-58
2022/12/05 02:09:07;;;;;;;81.43;29.57;;;2.00;99.90;;;;;;4985821;28;20210;-58
2022/12/05 02:11:46;;;;;;;84.97;30.13;;;2.00;99.90;;;;;;5009962;28;20191;-58
2022/12/05 02:14:27;;;;;;;89.30;30.63;;;2.00;99.90;;;;;;4989645;28;20259;-58
2022/12/05 02:17:04;;;;;;;92.13;32.27;;;2.00;99.90;;;;;;4985945;28;20235;-58
2022/12/05 02:20:03;;;;;;;90.77;30.23;;;2.00;99.90;;;;;;4985075;28;20660;-58
2022/12/05 02:23:01;;;;;;;84.17;28.97;;;1.90;99.90;;;;;;4990571;28;20669;-58
2022/12/05 02:25:51;;;;;;;86.10;30.23;;;2.00;99.90;;;;;;4980741;28;20213;-58
2022/12/05 02:28:44;;;;;;;91.17;30.57;;;2.00;99.90;;;;;;4981058;28;20824;-59
2022/12/05 02:31:18;;;;;;;96.27;31.83;;;2.00;99.90;;;;;;4984489;28;20374;-58
2022/12/05 02:33:50;;;;;;;90.87;31.00;;;2.00;99.90;;;;;;4981519;28;20248;-58
2022/12/05 02:36:25;;;;;;;89.43;30.97;;;2.00;99.90;;;;;;4985322;28;20199;-59
2022/12/05 02:39:01;;;;;;;92.80;31.70;;;2.00;99.90;;;;;;4989028;28;20200;-59
2022/12/05 02:41:34;;;;;;;95.33;31.93;;;2.00;99.90;;;;;;5004461;28;20202;-59
2022/12/05 02:44:07;;;;;;;92.73;32.43;;;2.00;99.90;;;;;;4980969;28;20225;-58
2022/12/05 02:46:39;;;;;;;88.73;31.60;;;2.00;99.90;;;;;;4984868;28;20645;-59
2022/12/05 02:49:10;;;;;;;84.10;29.77;;;2.00;99.90;;;;;;4986229;28;20537;-58
2022/12/05 02:51:43;;;;;;;88.30;31.60;;;2.00;99.90;;;;;;4985588;28;20205;-59
2022/12/05 02:54:15;;;;;;;85.40;31.27;;;2.00;99.90;;;;;;4983654;28;20206;-59
2022/12/05 02:56:45;;;;;;;85.87;30.37;;;2.00;99.90;;;;;;4984121;28;20223;-58
2022/12/05 02:59:14;;;;;;;81.90;30.53;;;2.00;99.90;;;;;;4981086;28;20203;-59
2022/12/05 03:01:52;;;;;;;86.13;30.40;;;2.00;99.90;;;;;;4982520;28;20206;-59
2022/12/05 03:04:24;;;;;;;84.83;31.20;;;2.00;99.90;;;;;;4983619;28;20211;-58
2022/12/05 03:06:57;;;;;;;88.37;28.83;;;2.00;99.90;;;;;;4974477;28;20200;-58
2022/12/05 03:09:30;;;;;;;78.93;28.17;;;2.10;99.90;;;;;;4977831;28;20199;-58
2022/12/05 03:12:06;;;;;;;76.87;28.10;;;2.10;99.90;;;;;;4996118;28;20553;-59
2022/12/05 03:14:39;;;;;;;77.33;29.57;;;2.10;99.90;;;;;;4985293;28;20239;-59
2022/12/05 03:17:14;;;;;;;80.67;30.10;;;2.10;99.90;;;;;;4979556;28;20230;-58
2022/12/05 03:19:57;;;;;;;75.43;28.50;;;2.10;99.90;;;;;;4985795;28;20576;-59
2022/12/05 03:22:31;;;;;;;82.70;28.30;;;2.10;99.90;;;;;;4979072;28;20203;-58
2022/12/05 03:25:00;;;;;;;73.67;27.47;;;2.10;99.90;;;;;;4978726;28;20203;-59
2022/12/05 03:27:40;;;;;;;72.13;28.50;;;2.10;99.90;;;;;;4973371;28;20703;-59
2022/12/05 03:30:16;;;;;;;81.28;33.50;;;2.10;99.90;;;;;;4981994;28;20452;-59
2022/12/05 03:32:51;;;;;;;75.77;29.07;;;2.10;99.90;;;;;;5000633;28;20250;-59
2022/12/05 03:35:24;;;;;;;72.97;27.97;;;2.10;99.90;;;;;;4982943;28;20213;-59
2022/12/05 03:37:57;;;;;;;77.53;28.17;;;2.10;99.90;;;;;;4980112;28;20197;-59
2022/12/05 03:40:31;;;;;;;70.30;26.70;;;2.10;99.90;;;;;;4981907;28;20200;-59
2022/12/05 03:43:08;;;;;;;70.00;27.63;;;2.10;99.90;;;;;;4984943;28;20244;-58
2022/12/05 03:45:44;;;;;;;68.87;27.43;;;2.10;99.90;;;;;;4982249;28;20187;-58
2022/12/05 03:48:21;;;;;;;73.17;26.67;;;2.10;99.90;;;;;;4986782;28;20213;-59
2022/12/05 03:50:53;;;;;;;68.10;26.97;;;2.10;99.90;;;;;;4982224;28;20202;-58
2022/12/05 03:53:27;;;;;;;67.67;27.27;;;2.10;99.90;;;;;;4981647;28;20196;-58
2022/12/05 03:56:04;;;;;;;71.10;26.37;;;2.20;99.90;;;;;;4991353;28;20198;-59
2022/12/05 03:58:38;;;;;;;70.53;27.40;;;2.10;99.90;;;;;;4974250;28;20183;-59
2022/12/05 04:01:10;;;;;;;71.10;25.43;;;2.20;99.90;;;;;;4984563;28;20208;-59
2022/12/05 04:03:43;;;;;;;72.77;27.30;;;2.20;99.90;;;;;;4976433;28;20228;-59
2022/12/05 04:06:22;;;;;;;66.33;26.90;;;2.20;99.90;;;;;;4978986;28;20230;-58
2022/12/05 04:08:54;;;;;;;73.67;26.97;;;2.10;99.90;;;;;;4992100;28;20213;-59
2022/12/05 04:11:27;;;;;;;69.93;26.50;;;2.10;99.90;;;;;;4979533;28;20207;-59
2022/12/05 04:14:01;;;;;;;69.60;24.53;;;2.10;99.90;;;;;;4993632;28;20600;-59
2022/12/05 04:19:28;;;;;;;67.67;26.60;;;2.00;99.90;;;;;;4979792;28;20220;-59
2022/12/05 04:21:56;;;;;;;74.43;27.23;;;2.00;99.90;;;;;;4981325;28;20198;-58
2022/12/05 04:27:25;;;;;;;66.87;26.00;;;2.00;99.90;;;;;;4992325;28;20701;-59
2022/12/05 04:30:01;;;;;;;69.83;25.17;;;2.00;99.90;;;;;;4985586;28;20218;-58
2022/12/05 04:32:37;;;;;;;65.37;25.27;;;2.00;99.90;;;;;;4979303;28;20226;-58
2022/12/05 04:35:13;;;;;;;75.90;26.17;;;2.00;99.90;;;;;;4986579;28;20271;-59
2022/12/05 04:37:47;;;;;;;62.33;26.33;;;2.00;99.90;;;;;;5011103;28;20213;-58
2022/12/05 04:40:20;;;;;;;70.27;26.17;;;2.00;99.90;;;;;;4989863;28;20198;-58
2022/12/05 04:42:51;;;;;;;61.90;25.13;;;2.00;99.90;;;;;;4985122;28;20201;-59
2022/12/05 04:45:21;;;;;;;64.77;25.20;;;2.00;99.90;;;;;;4978017;28;20221;-58
2022/12/05 04:48:01;;;;;;;73.60;26.43;;;2.00;99.90;;;;;;4978133;28;20280;-58
2022/12/05 04:50:34;;;;;;;61.03;25.40;;;2.10;99.90;;;;;;5006699;28;20221;-58
2022/12/05 04:53:03;;;;;;;67.80;27.03;;;2.10;99.90;;;;;;4988589;28;20290;-59
2022/12/05 04:55:34;;;;;;;74.63;27.93;;;2.10;99.90;;;;;;4988704;28;20195;-59
2022/12/05 04:58:08;;;;;;;72.80;27.97;;;2.10;99.90;;;;;;4982681;28;20206;-58
2022/12/05 05:00:46;;;;;;;77.27;28.07;;;2.10;99.90;;;;;;4984823;28;20298;-59
2022/12/05 05:03:18;;;;;;;73.67;26.70;;;2.10;99.90;;;;;;4983297;28;20684;-58
2022/12/05 05:05:51;;;;;;;70.63;26.93;;;2.10;99.90;;;;;;5017040;28;20560;-58
2022/12/05 05:08:21;;;;;;;76.00;26.43;;;2.10;99.90;;;;;;4985805;28;20258;-58
2022/12/05 05:11:03;;;;;;;64.07;26.30;;;2.10;99.90;;;;;;4981860;28;20194;-58
2022/12/05 05:13:31;;;;;;;67.97;26.60;;;2.10;99.90;;;;;;4983864;28;20203;-58
2022/12/05 05:15:59;;;;;;;81.27;27.80;;;2.10;99.90;;;;;;4978461;28;20234;-58
2022/12/05 05:18:28;;;;;;;75.40;26.63;;;2.10;99.90;;;;;;4986011;28;20203;-58
2022/12/05 05:20:58;;;;;;;69.07;25.80;;;2.00;99.90;;;;;;4983799;28;20206;-59
2022/12/05 05:23:26;;;;;;;73.07;26.17;;;2.10;99.90;;;;;;4976052;28;20207;-59
2022/12/05 05:25:56;;;;;;;70.03;26.33;;;2.10;99.90;;;;;;4979878;28;20199;-59
2022/12/05 05:28:24;;;;;;;70.77;25.97;;;2.10;99.90;;;;;;5008278;28;20207;-59
2022/12/05 05:30:53;;;;;;;73.07;26.47;;;2.00;99.90;;;;;;4978559;28;20214;-58
2022/12/05 05:33:21;;;;;;;73.80;27.13;;;2.10;99.90;;;;;;4986341;28;20199;-59
2022/12/05 05:35:49;;;;;;;69.83;26.10;;;2.00;99.90;;;;;;4976276;28;20199;-59
2022/12/05 05:38:19;;;;;;;72.40;27.13;;;2.10;99.90;;;;;;4995463;28;20572;-59
2022/12/05 05:40:47;;;;;;;77.80;27.70;;;2.10;99.90;;;;;;4980132;28;20183;-59
2022/12/05 05:43:16;;;;;;;77.07;26.77;;;2.10;99.90;;;;;;4976646;28;20253;-59
2022/12/05 05:45:44;;;;;;;79.47;27.53;;;2.10;99.90;;;;;;4995086;28;20203;-59
2022/12/05 05:48:16;;;;;;;75.27;27.30;;;2.10;99.90;;;;;;4976137;28;20191;-59
2022/12/05 05:50:44;;;;;;;74.53;26.47;;;2.10;99.90;;;;;;5010094;28;20587;-59
2022/12/05 05:53:13;;;;;;;75.87;26.00;;;2.10;99.90;;;;;;4979596;28;20192;-59
2022/12/05 05:55:43;;;;;;;68.40;26.87;;;2.10;99.90;;;;;;4992362;28;20183;-59
2022/12/05 05:58:11;;;;;;;78.87;27.70;;;2.10;99.90;;;;;;4996610;28;20210;-59
2022/12/05 06:00:40;;;;;;;80.10;27.80;;;2.10;99.90;;;;;;4982565;28;20529;-59
2022/12/05 06:03:08;;;;;;;76.03;26.40;;;2.10;99.90;;;;;;4981223;28;20630;-58
2022/12/05 06:05:37;;;;;;;71.70;27.20;;;2.10;99.90;;;;;;4993886;28;20206;-59
2022/12/05 06:08:05;;;;;;;80.00;28.07;;;2.10;99.90;;;;;;4984990;28;20209;-59
2022/12/05 06:10:34;;;;;;;67.67;27.87;;;2.20;99.90;;;;;;4977695;28;20273;-59
2022/12/05 06:13:03;;;;;;;79.30;27.30;;;2.20;99.90;;;;;;4982889;28;20199;-59
2022/12/05 06:15:32;;;;;;;77.77;26.90;;;2.20;99.90;;;;;;4976310;28;20202;-59
2022/12/05 06:18:00;;;;;;;83.40;27.73;;;2.20;99.90;;;;;;4974068;28;20217;-58
2022/12/05 06:20:28;;;;;;;74.63;27.17;;;2.20;99.90;;;;;;4979564;28;20597;-59
2022/12/05 06:22:59;;;;;;;77.63;27.17;;;2.20;99.90;;;;;;4992186;28;20207;-59
2022/12/05 06:25:27;;;;;;;87.27;28.20;;;2.20;99.90;;;;;;4978924;28;20199;-59
2022/12/05 06:27:55;;;;;;;87.10;28.50;;;2.30;99.90;;;;;;5003000;28;20553;-59
2022/12/05 06:30:25;;;;;;;75.23;26.97;;;2.30;99.90;;;;;;4985953;28;20210;-58
2022/12/05 06:32:54;;;;;;;74.97;27.47;;;2.30;99.90;;;;;;4994758;28;20203;-59
2022/12/05 06:35:22;;;;;;;80.57;28.50;;;2.30;99.90;;;;;;4983777;28;20191;-59
2022/12/05 06:37:50;;;;;;;84.13;29.87;;;2.30;99.90;;;;;;4989025;28;20191;-59
2022/12/05 06:40:19;;;;;;;74.60;28.00;;;2.30;99.90;;;;;;4993980;28;20206;-59
2022/12/05 06:42:47;;;;;;;87.83;29.27;;;2.30;99.90;;;;;;4996259;28;20673;-58
2022/12/05 06:45:15;;;;;;;83.13;29.50;;;2.30;99.90;;;;;;4980039;28;20207;-59
2022/12/05 06:47:45;;;;;;;78.07;27.77;;;2.30;99.90;;;;;;4979176;28;20199;-59
2022/12/05 06:50:13;;;;;;;85.37;28.53;;;2.40;99.90;;;;;;4976453;28;20721;-59
2022/12/05 06:52:41;;;;;;;79.80;27.97;;;2.40;99.90;;;;;;4985583;28;20661;-58
2022/12/05 06:55:10;;;;;;;82.97;28.43;;;2.40;99.90;;;;;;4979512;28;20219;-58
2022/12/05 06:57:38;;;;;;;79.80;28.53;;;2.40;99.90;;;;;;5008544;28;20206;-59
2022/12/05 07:02:55;;;;;;;80.03;28.43;;;2.40;99.90;;;;;;4975992;28;20540;-58
2022/12/05 07:05:23;;;;;;;74.33;27.77;;;2.40;99.90;;;;;;4977911;28;20218;-59
2022/12/05 07:07:51;;;;;;;77.03;27.93;;;2.40;99.90;;;;;;4999441;28;20191;-58
2022/12/05 07:10:20;;;;;;;82.53;29.30;;;2.50;99.90;;;;;;4979086;28;20732;-58
2022/12/05 07:12:48;;;;;;;82.50;28.60;;;2.50;99.90;;;;;;4991252;28;20214;-59
2022/12/05 07:15:16;;;;;;;76.70;26.53;;;2.50;99.90;;;;;;4990063;28;20210;-59
2022/12/05 07:17:44;;;;;;;76.53;27.53;;;2.50;99.90;;;;;;5001823;28;20223;-59
2022/12/05 07:20:16;;;;;;;78.90;27.43;;;2.50;99.90;;;;;;4978341;28;20587;-58
2022/12/05 07:22:45;;;;;;;80.03;28.30;;;2.50;99.90;;;;;;4989814;28;20210;-59
2022/12/05 07:25:14;;;;;;;80.90;28.07;;;2.50;99.90;;;;;;5015568;28;20200;-58
2022/12/05 07:27:42;;;;;;;78.63;29.27;;;2.50;99.90;;;;;;4999213;28;20635;-58
2022/12/05 07:30:11;;;;;;;82.43;28.77;;;2.60;99.90;;;;;;4976737;28;20212;-59
2022/12/05 07:32:39;;;;;;;79.77;29.37;;;2.50;99.90;;;;;;4990479;28;20206;-58
2022/12/05 07:35:08;;;;;;;81.50;29.00;;;2.60;99.90;;;;;;4990126;28;20207;-59
2022/12/05 07:37:38;;;;;;;80.40;28.70;;;2.60;99.90;;;;;;4995255;28;20709;-59
2022/12/05 07:40:07;;;;;;;82.67;29.00;;;2.60;99.90;;;;;;4988603;28;20202;-58
2022/12/05 07:42:36;;;;;;;86.57;28.67;;;2.60;99.90;;;;;;4996747;28;20218;-58
2022/12/05 07:45:05;;;;;;;75.80;28.10;;;2.60;99.90;;;;;;4984081;28;20669;-58
2022/12/05 07:47:33;;;;;;;93.90;29.23;;;2.60;99.90;;;;;;4990269;28;20561;-59
2022/12/05 07:50:02;;;;;;;84.33;29.47;;;2.70;99.90;;;;;;4977556;28;20639;-58
2022/12/05 07:52:33;;;;;;;88.47;30.73;;;2.60;99.90;;;;;;4991790;28;20568;-58
2022/12/05 07:55:03;;;;;;;84.30;30.93;;;2.70;99.90;;;;;;4985073;28;20686;-58
2022/12/05 07:57:31;;;;;;;84.10;28.47;;;2.70;99.90;;;;;;4986606;28;20299;-58
2022/12/05 08:00:00;;;;;;;88.73;29.63;;;2.70;99.90;;;;;;4971512;28;20198;-59
2022/12/05 08:02:28;;;;;;;104.40;34.57;;;2.70;99.90;;;;;;4977303;28;20198;-59
2022/12/05 08:04:57;;;;;;;94.97;34.87;;;2.70;99.90;;;;;;4979664;28;20207;-59
2022/12/05 08:07:25;;;;;;;100.77;33.23;;;2.70;99.90;;;;;;4975665;28;20203;-59
2022/12/05 08:09:54;;;;;;;87.10;32.33;;;2.70;99.90;;;;;;4995112;28;20215;-59
2022/12/05 08:12:24;;;;;;;87.20;31.53;;;2.70;99.90;;;;;;4988894;28;20556;-59
2022/12/05 08:14:53;;;;;;;87.23;32.13;;;2.80;99.90;;;;;;4972423;28;20221;-59
2022/12/05 08:17:21;;;;;;;90.87;30.77;;;2.80;99.90;;;;;;4983610;28;20589;-59
2022/12/05 08:19:49;;;;;;;86.90;29.87;;;2.80;99.90;;;;;;4993499;28;20645;-59
2022/12/05 08:22:18;;;;;;;87.60;30.27;;;2.80;99.90;;;;;;4988921;28;20652;-59
2022/12/05 08:24:46;;;;;;;91.73;30.73;;;2.80;99.90;;;;;;4980228;28;20199;-59
2022/12/05 08:27:22;;;;;;;92.53;31.10;;;2.80;99.90;;;;;;4971241;28;20674;-59
2022/12/05 08:29:51;;;;;;;90.13;31.50;;;2.80;99.90;;;;;;4985443;28;20195;-59
2022/12/05 08:32:20;;;;;;;84.10;31.53;;;2.90;99.90;;;;;;4976601;28;20565;-59
2022/12/05 08:34:48;;;;;;;80.30;29.40;;;2.90;99.90;;;;;;4983217;28;20206;-59
2022/12/05 08:37:16;;;;;;;118.43;35.33;;;2.90;99.90;;;;;;4971919;28;20672;-59
2022/12/05 08:39:45;;;;;;;175.77;46.87;;;2.90;99.90;;;;;;4992980;28;20199;-60
2022/12/05 08:42:13;;;;;;;144.53;46.00;;;2.90;99.90;;;;;;5033954;28;20520;-59
2022/12/05 08:44:42;;;;;;;97.93;35.17;;;3.00;99.90;;;;;;5011929;28;20215;-59
2022/12/05 08:47:13;;;;;;;112.57;38.77;;;3.00;99.90;;;;;;5028958;28;20593;-59
2022/12/05 08:49:41;;;;;;;119.97;40.70;;;3.00;99.90;;;;;;5004822;28;20202;-59
2022/12/05 08:52:10;;;;;;;167.70;50.50;;;3.00;99.90;;;;;;4970766;28;20690;-59
2022/12/05 08:54:38;;;;;;;189.23;59.27;;;3.00;99.90;;;;;;4984673;28;20207;-59
2022/12/05 08:57:07;;;;;;;201.60;64.00;;;3.10;99.90;;;;;;4990174;28;20194;-59
2022/12/05 08:59:35;;;;;;;222.80;74.43;;;3.10;99.90;;;;;;4988551;28;20191;-59
2022/12/05 09:02:03;;;;;;;206.63;69.93;;;3.10;99.90;;;;;;4971639;28;20191;-59
2022/12/05 09:04:33;;;;;;;136.83;48.37;;;3.10;99.90;;;;;;4976856;28;20503;-59
2022/12/05 09:07:02;;;;;;;144.93;50.00;;;3.10;99.90;;;;;;4984201;28;20201;-59
2022/12/05 09:09:32;;;;;;;132.17;48.73;;;3.20;99.90;;;;;;4983249;28;20199;-59
2022/12/05 09:12:01;;;;;;;133.17;46.03;;;3.20;99.90;;;;;;4976400;28;20210;-59
2022/12/05 09:14:31;;;;;;;129.47;44.43;;;3.30;99.90;;;;;;4988998;28;20202;-59
2022/12/05 09:17:00;;;;;;;99.03;37.03;;;3.30;99.90;;;;;;4970209;28;20236;-59
2022/12/05 09:19:29;;;;;;;90.47;34.83;;;3.30;99.90;;;;;;4968818;28;20203;-59
2022/12/05 09:21:59;;;;;;;90.53;33.70;;;3.30;99.90;;;;;;4995742;28;20198;-59
2022/12/05 09:24:27;;;;;;;84.60;32.33;;;3.40;99.90;;;;;;4988284;28;20778;-59
2022/12/05 09:26:56;;;;;;;89.57;32.53;;;3.40;99.90;;;;;;5001653;28;20633;-58
2022/12/05 09:29:30;;;;;;;69.33;27.57;;;3.40;99.90;;;;;;4993020;28;20252;-59
2022/12/05 09:32:01;;;;;;;78.07;29.53;;;3.40;99.90;;;;;;4980695;28;20215;-59
2022/12/05 09:34:29;;;;;;;81.30;30.60;;;3.40;99.90;;;;;;4973256;28;20206;-59
2022/12/05 09:37:00;;;;;;;72.83;29.47;;;3.50;99.90;;;;;;4977586;28;20543;-59
2022/12/05 09:39:48;;;;;;;78.00;30.57;;;3.50;99.90;;;;;;4984769;28;20657;-59
2022/12/05 09:42:36;;;;;;;79.80;30.53;;;3.50;99.90;;;;;;4979516;28;20211;-59
2022/12/05 09:45:22;;;;;;;81.30;31.97;;;3.50;99.90;;;;;;4973392;28;20211;-59
2022/12/05 09:47:59;;;;;;;81.10;32.17;;;3.50;99.90;;;;;;4991323;28;20195;-59
2022/12/05 09:50:29;;;;;;;77.80;31.07;;;3.50;99.90;;;;;;4984161;28;20217;-59
2022/12/05 09:53:07;;;;;;;76.93;31.30;;;3.50;99.90;;;;;;5012211;28;20192;-59
2022/12/05 09:55:44;;;;;;;86.63;32.57;;;3.50;99.90;;;;;;4995665;28;20191;-59
2022/12/05 09:58:27;;;;;;;70.87;29.30;;;3.60;99.90;;;;;;4973121;28;20203;-59
2022/12/05 10:01:01;;;;;;;77.90;30.50;;;3.60;99.90;;;;;;4990056;28;20277;-59
2022/12/05 10:03:38;;;;;;;71.17;29.53;;;3.60;99.90;;;;;;4999232;28;20626;-59
2022/12/05 10:06:18;;;;;;;70.23;28.20;;;3.70;99.90;;;;;;5010108;28;20194;-59
2022/12/05 10:09:10;;;;;;;73.40;28.67;;;3.60;99.90;;;;;;4998057;28;20198;-59
2022/12/05 10:11:44;;;;;;;66.60;28.23;;;3.70;99.90;;;;;;4989205;28;20207;-59
2022/12/05 10:14:19;;;;;;;67.63;27.87;;;3.70;99.90;;;;;;4990600;28;20291;-59
2022/12/05 10:16:54;;;;;;;70.43;28.30;;;3.70;99.90;;;;;;4990559;28;20227;-59
2022/12/05 10:19:27;;;;;;;71.30;28.97;;;3.80;99.90;;;;;;4972148;28;20715;-59
2022/12/05 10:21:59;;;;;;;68.73;28.90;;;3.80;99.90;;;;;;5007515;28;20214;-58
2022/12/05 10:24:36;;;;;;;63.03;26.73;;;3.80;99.90;;;;;;4988688;28;20198;-59
2022/12/05 10:27:07;;;;;;;68.07;28.77;;;3.80;99.90;;;;;;4999127;28;20199;-60
2022/12/05 10:29:42;;;;;;;63.50;28.00;;;3.90;99.90;;;;;;4990929;28;20202;-59
2022/12/05 10:32:16;;;;;;;67.63;28.30;;;3.90;99.90;;;;;;4991896;28;20211;-59
2022/12/05 10:34:46;;;;;;;54.80;25.53;;;3.90;99.90;;;;;;4975160;28;20252;-58
2022/12/05 10:37:18;;;;;;;56.10;25.83;;;4.00;99.90;;;;;;4995695;28;20518;-59
2022/12/05 10:39:49;;;;;;;57.20;25.10;;;4.00;99.90;;;;;;4974460;28;20554;-58
2022/12/05 10:42:25;;;;;;;58.63;26.53;;;4.00;99.90;;;;;;5003085;28;20198;-58
2022/12/05 10:44:57;;;;;;;57.93;25.87;;;4.10;99.90;;;;;;4983975;28;20214;-59
2022/12/05 10:47:28;;;;;;;52.47;25.17;;;4.10;99.90;;;;;;4974171;28;20207;-59
2022/12/05 10:50:00;;;;;;;56.63;24.90;;;4.10;99.90;;;;;;4989935;28;20712;-59
2022/12/05 10:52:30;;;;;;;65.10;26.43;;;4.10;99.90;;;;;;4988054;28;20253;-58
2022/12/05 10:55:04;;;;;;;50.43;23.87;;;4.20;99.90;;;;;;4987797;28;20213;-60
2022/12/05 10:57:32;;;;;;;47.77;22.87;;;4.20;99.90;;;;;;4991518;28;20209;-59
2022/12/05 11:00:11;;;;;;;48.47;23.30;;;4.20;99.90;;;;;;5054619;28;20260;-59
2022/12/05 11:02:42;;;;;;;45.30;22.97;;;4.10;99.90;;;;;;4973887;28;20207;-59
2022/12/05 11:05:12;;;;;;;47.10;22.80;;;4.10;99.90;;;;;;4990489;28;20189;-59
2022/12/05 11:07:48;;;;;;;45.13;22.80;;;4.10;99.90;;;;;;4989984;28;20205;-59
2022/12/05 11:10:24;;;;;;;45.50;22.07;;;4.10;99.90;;;;;;4984029;28;20583;-59
2022/12/05 11:12:57;;;;;;;47.30;23.50;;;4.20;99.90;;;;;;4987920;28;20218;-59
2022/12/05 11:15:27;;;;;;;39.13;21.33;;;4.20;99.90;;;;;;4980245;28;20191;-58
2022/12/05 11:17:58;;;;;;;47.40;21.80;;;4.20;99.90;;;;;;4984326;28;20200;-58
2022/12/05 11:20:36;;;;;;;41.40;21.60;;;4.20;99.90;;;;;;4987282;28;20201;-59
2022/12/05 11:23:18;;;;;;;46.20;21.87;;;4.20;99.90;;;;;;4986576;28;20194;-59
2022/12/05 11:25:47;;;;;;;47.70;22.70;;;4.20;99.90;;;;;;4981427;28;20199;-59
2022/12/05 11:28:39;;;;;;;43.63;21.83;;;4.10;99.90;;;;;;4979411;28;20666;-59
2022/12/05 11:31:22;;;;;;;43.23;21.73;;;4.10;99.90;;;;;;4994570;28;20227;-59
2022/12/05 11:34:02;;;;;;;47.20;21.87;;;4.20;99.90;;;;;;4974395;28;20199;-59
2022/12/05 11:36:38;;;;;;;45.50;22.70;;;4.20;99.90;;;;;;5002156;28;20194;-59
2022/12/05 11:39:08;;;;;;;44.23;22.63;;;4.30;99.90;;;;;;4970518;28;20195;-60
2022/12/05 11:41:49;;;;;;;44.23;21.90;;;4.30;99.90;;;;;;4990031;28;20217;-59
2022/12/05 11:44:41;;;;;;;48.33;24.00;;;4.30;99.90;;;;;;4982660;28;20222;-59
2022/12/05 11:47:20;;;;;;;46.23;22.67;;;4.30;99.90;;;;;;5011478;28;20206;-60
2022/12/05 11:50:15;;;;;;;48.43;23.73;;;4.40;99.90;;;;;;4982179;28;20212;-59
2022/12/05 11:52:57;;;;;;;50.53;23.97;;;4.50;99.90;;;;;;5058117;28;20602;-59
2022/12/05 11:55:30;;;;;;;44.63;23.37;;;4.60;99.90;;;;;;5002147;28;20206;-60
2022/12/05 11:58:28;;;;;;;44.33;23.23;;;4.60;99.90;;;;;;5059934;28;20775;-59
2022/12/05 12:01:07;;;;;;;46.90;22.47;;;4.70;99.90;;;;;;5015000;28;20203;-59
2022/12/05 12:04:18;;;;;;;44.50;22.17;;;4.80;99.90;;;;;;4982788;28;20194;-59
2022/12/05 12:07:00;;;;;;;43.40;22.43;;;4.90;99.90;;;;;;4989272;28;20206;-59
2022/12/05 12:09:38;;;;;;;41.20;20.83;;;4.90;99.90;;;;;;4989808;28;20556;-59
2022/12/05 12:12:16;;;;;;;41.63;21.97;;;4.90;99.90;;;;;;4980480;28;20214;-59
2022/12/05 12:14:56;;;;;;;40.30;21.07;;;4.90;99.90;;;;;;4972202;28;20289;-59
2022/12/05 12:17:34;;;;;;;42.13;22.93;;;4.90;99.90;;;;;;5023553;28;20760;-59
2022/12/05 12:20:17;;;;;;;42.50;22.90;;;4.90;99.90;;;;;;4988856;28;21367;-59
2022/12/05 12:23:05;;;;;;;47.30;23.07;;;4.80;99.90;;;;;;5002134;28;20561;-60
2022/12/05 12:25:43;;;;;;;41.30;21.63;;;4.80;99.90;;;;;;4986948;28;20211;-59
2022/12/05 12:28:29;;;;;;;46.23;23.43;;;4.80;99.90;;;;;;4993447;28;20193;-59
2022/12/05 12:31:08;;;;;;;42.40;22.83;;;4.70;99.90;;;;;;4988575;28;20191;-60
2022/12/05 12:33:42;;;;;;;45.23;22.73;;;4.70;99.90;;;;;;4971149;28;20250;-59
2022/12/05 12:36:18;;;;;;;46.43;23.53;;;4.70;99.90;;;;;;4976131;28;20187;-59
2022/12/05 12:39:05;;;;;;;47.30;23.67;;;4.70;99.90;;;;;;4971182;28;20195;-59
2022/12/05 12:41:52;;;;;;;42.03;21.83;;;4.70;99.90;;;;;;4984985;28;20197;-59
2022/12/05 12:44:49;;;;;;;44.17;22.83;;;4.70;99.90;;;;;;4991296;28;20551;-59
2022/12/05 12:47:26;;;;;;;44.67;22.80;;;4.70;99.90;;;;;;4991225;28;20210;-59
2022/12/05 12:50:10;;;;;;;46.47;24.20;;;4.80;99.90;;;;;;4993139;28;20282;-59
2022/12/05 12:52:58;;;;;;;41.90;21.83;;;4.70;99.90;;;;;;4988536;28;20210;-59
2022/12/05 12:55:37;;;;;;;42.67;23.07;;;4.80;99.90;;;;;;5002241;28;20206;-59
2022/12/05 12:58:17;;;;;;;44.97;23.23;;;4.70;99.90;;;;;;4970730;28;20199;-59
2022/12/05 13:00:56;;;;;;;42.33;22.27;;;4.80;99.90;;;;;;4979854;28;20713;-58
2022/12/05 13:03:31;;;;;;;43.60;21.70;;;4.70;99.90;;;;;;4991295;28;20195;-59
2022/12/05 13:06:05;;;;;;;40.63;21.40;;;4.70;99.90;;;;;;4995539;28;20202;-59
2022/12/05 13:08:38;;;;;;;42.30;22.27;;;4.70;99.90;;;;;;4974063;28;20197;-59
2022/12/05 13:11:10;;;;;;;37.37;20.37;;;4.70;99.90;;;;;;4973926;28;20199;-59
2022/12/05 13:13:43;;;;;;;40.43;21.30;;;4.70;99.90;;;;;;4987092;28;20234;-59